Dewey Beach, Delaware
Current Conditions -  °F | °C
As of 8:54 AM on Tuesday 27 Jan 2015 (Local Time) from KGED Reporting Station
Overcast Overcast  
Wind Chill: 20°   Ceiling: 3600
Heat Index: 29°   Visibility: 10mi
Dew Point: 21°   Wind: 9mph
Humidity: 72%   Direction: 350°N
Pressure: 29.75"   Gusts: NA
Location:  38.7115°N, 75.1086°W
Report Text: KGED 271354Z AUTO 35008KT 10SM OVC036 M02/M06 A2975 RMK AO2 SLP073 T10171061
Loading
Personal Weather Stations






























Interactive Weather Map New forecast layout! Learn more

10-Day Weather Forecast

Advertisements
Track Severe Weather on mobile